sensor_id;sensor_type;location;lat;lon;timestamp;P1;durP1;ratioP1;P2;durP2;ratioP2
52434;SDS011;38354;52.892;6.148;2023-02-28T04:01:01;11.82;;;5.80;;
52434;SDS011;38354;52.892;6.148;2023-02-28T04:03:36;13.52;;;6.07;;
52434;SDS011;38354;52.892;6.148;2023-02-28T04:06:03;14.07;;;5.90;;
52434;SDS011;38354;52.892;6.148;2023-02-28T04:08:30;13.48;;;6.10;;
52434;SDS011;38354;52.892;6.148;2023-02-28T04:11:01;16.77;;;6.45;;
52434;SDS011;38354;52.892;6.148;2023-02-28T04:13:47;12.13;;;5.80;;
52434;SDS011;38354;52.892;6.148;2023-02-28T04:16:13;11.93;;;5.78;;
52434;SDS011;38354;52.892;6.148;2023-02-28T04:18:39;14.68;;;6.53;;
52434;SDS011;38354;52.892;6.148;2023-02-28T04:21:05;15.82;;;6.50;;
52434;SDS011;38354;52.892;6.148;2023-02-28T04:23:31;15.43;;;7.05;;
52434;SDS011;38354;52.892;6.148;2023-02-28T04:25:57;15.68;;;6.43;;
52434;SDS011;38354;52.892;6.148;2023-02-28T04:28:22;14.68;;;6.47;;
52434;SDS011;38354;52.892;6.148;2023-02-28T04:30:54;15.75;;;7.13;;
52434;SDS011;38354;52.892;6.148;2023-02-28T04:33:24;18.27;;;9.00;;
52434;SDS011;38354;52.892;6.148;2023-02-28T04:36:05;21.92;;;9.75;;
52434;SDS011;38354;52.892;6.148;2023-02-28T04:38:34;22.25;;;10.40;;
52434;SDS011;38354;52.892;6.148;2023-02-28T04:41:01;21.02;;;10.75;;
52434;SDS011;38354;52.892;6.148;2023-02-28T04:43:27;24.30;;;12.00;;
52434;SDS011;38354;52.892;6.148;2023-02-28T04:45:54;26.25;;;11.43;;
52434;SDS011;38354;52.892;6.148;2023-02-28T04:48:24;26.92;;;11.70;;
52434;SDS011;38354;52.892;6.148;2023-02-28T04:50:51;28.27;;;13.30;;
52434;SDS011;38354;52.892;6.148;2023-02-28T04:53:17;30.63;;;12.48;;
52434;SDS011;38354;52.892;6.148;2023-02-28T04:55:43;29.10;;;13.38;;
52434;SDS011;38354;52.892;6.148;2023-02-28T04:58:09;31.98;;;14.00;;
52434;SDS011;38354;52.892;6.148;2023-02-28T05:00:35;28.55;;;13.02;;
52434;SDS011;38354;52.892;6.148;2023-02-28T05:03:00;34.63;;;13.43;;
52434;SDS011;38354;52.892;6.148;2023-02-28T05:05:26;29.98;;;13.05;;
52434;SDS011;38354;52.892;6.148;2023-02-28T05:07:52;30.85;;;13.90;;
52434;SDS011;38354;52.892;6.148;2023-02-28T05:10:18;29.48;;;12.63;;
52434;SDS011;38354;52.892;6.148;2023-02-28T05:12:44;28.27;;;13.63;;
52434;SDS011;38354;52.892;6.148;2023-02-28T05:15:12;29.90;;;13.20;;
52434;SDS011;38354;52.892;6.148;2023-02-28T05:17:39;32.35;;;13.52;;
52434;SDS011;38354;52.892;6.148;2023-02-28T05:20:05;31.25;;;14.27;;
52434;SDS011;38354;52.892;6.148;2023-02-28T05:22:32;29.52;;;13.52;;
52434;SDS011;38354;52.892;6.148;2023-02-28T05:24:57;31.88;;;14.18;;
52434;SDS011;38354;52.892;6.148;2023-02-28T05:27:23;33.80;;;14.10;;
52434;SDS011;38354;52.892;6.148;2023-02-28T05:29:48;31.45;;;14.40;;
52434;SDS011;38354;52.892;6.148;2023-02-28T05:32:14;33.58;;;13.68;;
52434;SDS011;38354;52.892;6.148;2023-02-28T05:34:40;29.63;;;14.73;;
52434;SDS011;38354;52.892;6.148;2023-02-28T05:37:08;31.17;;;14.75;;
52434;SDS011;38354;52.892;6.148;2023-02-28T05:39:37;32.85;;;14.85;;
52434;SDS011;38354;52.892;6.148;2023-02-28T05:42:02;33.08;;;14.85;;
52434;SDS011;38354;52.892;6.148;2023-02-28T05:44:28;31.45;;;14.73;;
52434;SDS011;38354;52.892;6.148;2023-02-28T05:46:54;31.60;;;14.80;;
52434;SDS011;38354;52.892;6.148;2023-02-28T05:49:19;31.95;;;14.93;;
52434;SDS011;38354;52.892;6.148;2023-02-28T05:51:45;30.67;;;14.32;;
52434;SDS011;38354;52.892;6.148;2023-02-28T05:54:11;34.40;;;15.73;;
52434;SDS011;38354;52.892;6.148;2023-02-28T05:56:36;36.17;;;16.05;;
52434;SDS011;38354;52.892;6.148;2023-02-28T05:59:04;36.35;;;16.17;;
52434;SDS011;38354;52.892;6.148;2023-02-28T06:01:34;35.65;;;15.68;;
52434;SDS011;38354;52.892;6.148;2023-02-28T06:04:03;38.50;;;16.20;;
52434;SDS011;38354;52.892;6.148;2023-02-28T06:06:30;41.17;;;16.42;;
52434;SDS011;38354;52.892;6.148;2023-02-28T06:08:56;36.65;;;16.80;;
52434;SDS011;38354;52.892;6.148;2023-02-28T06:11:22;40.08;;;15.95;;
52434;SDS011;38354;52.892;6.148;2023-02-28T06:13:53;38.90;;;17.92;;
52434;SDS011;38354;52.892;6.148;2023-02-28T06:16:20;35.65;;;15.93;;
52434;SDS011;38354;52.892;6.148;2023-02-28T06:18:46;42.97;;;17.83;;
52434;SDS011;38354;52.892;6.148;2023-02-28T06:21:12;34.85;;;16.25;;
52434;SDS011;38354;52.892;6.148;2023-02-28T06:23:38;40.97;;;17.15;;
52434;SDS011;38354;52.892;6.148;2023-02-28T06:26:04;39.08;;;17.40;;
52434;SDS011;38354;52.892;6.148;2023-02-28T06:28:30;37.45;;;17.00;;
52434;SDS011;38354;52.892;6.148;2023-02-28T06:30:56;39.55;;;16.63;;
52434;SDS011;38354;52.892;6.148;2023-02-28T06:33:22;39.75;;;16.85;;
52434;SDS011;38354;52.892;6.148;2023-02-28T06:35:51;39.92;;;16.65;;
52434;SDS011;38354;52.892;6.148;2023-02-28T06:38:17;36.08;;;16.27;;
52434;SDS011;38354;52.892;6.148;2023-02-28T06:40:43;37.03;;;16.20;;
52434;SDS011;38354;52.892;6.148;2023-02-28T06:43:10;39.95;;;16.15;;
52434;SDS011;38354;52.892;6.148;2023-02-28T06:45:43;38.15;;;16.33;;
52434;SDS011;38354;52.892;6.148;2023-02-28T06:48:09;39.42;;;17.02;;
52434;SDS011;38354;52.892;6.148;2023-02-28T06:50:35;39.75;;;16.63;;
52434;SDS011;38354;52.892;6.148;2023-02-28T06:53:02;39.60;;;17.02;;
52434;SDS011;38354;52.892;6.148;2023-02-28T06:55:27;39.67;;;16.33;;
52434;SDS011;38354;52.892;6.148;2023-02-28T06:57:53;33.78;;;15.23;;
52434;SDS011;38354;52.892;6.148;2023-02-28T07:00:20;35.97;;;14.77;;
52434;SDS011;38354;52.892;6.148;2023-02-28T07:02:46;39.28;;;16.45;;
52434;SDS011;38354;52.892;6.148;2023-02-28T07:05:12;43.28;;;17.25;;
52434;SDS011;38354;52.892;6.148;2023-02-28T07:07:38;37.13;;;16.88;;
52434;SDS011;38354;52.892;6.148;2023-02-28T07:10:05;41.78;;;16.33;;
52434;SDS011;38354;52.892;6.148;2023-02-28T07:12:31;39.22;;;17.58;;
52434;SDS011;38354;52.892;6.148;2023-02-28T07:14:57;43.05;;;17.83;;
52434;SDS011;38354;52.892;6.148;2023-02-28T07:17:23;37.13;;;16.55;;
52434;SDS011;38354;52.892;6.148;2023-02-28T07:19:48;45.38;;;18.30;;
52434;SDS011;38354;52.892;6.148;2023-02-28T07:22:14;43.35;;;18.15;;
52434;SDS011;38354;52.892;6.148;2023-02-28T07:24:40;42.08;;;17.48;;
52434;SDS011;38354;52.892;6.148;2023-02-28T07:27:05;43.53;;;18.05;;
52434;SDS011;38354;52.892;6.148;2023-02-28T07:29:31;43.45;;;17.65;;
52434;SDS011;38354;52.892;6.148;2023-02-28T07:31:57;42.22;;;17.92;;
52434;SDS011;38354;52.892;6.148;2023-02-28T07:34:23;39.35;;;18.23;;
52434;SDS011;38354;52.892;6.148;2023-02-28T07:36:48;37.88;;;17.45;;
52434;SDS011;38354;52.892;6.148;2023-02-28T07:39:18;40.40;;;17.60;;
52434;SDS011;38354;52.892;6.148;2023-02-28T07:41:44;39.92;;;18.20;;
52434;SDS011;38354;52.892;6.148;2023-02-28T07:44:10;38.00;;;17.17;;
52434;SDS011;38354;52.892;6.148;2023-02-28T07:46:36;38.35;;;16.65;;
52434;SDS011;38354;52.892;6.148;2023-02-28T07:49:03;37.70;;;17.58;;
52434;SDS011;38354;52.892;6.148;2023-02-28T07:51:29;38.13;;;16.67;;
52434;SDS011;38354;52.892;6.148;2023-02-28T07:53:55;33.50;;;16.42;;
52434;SDS011;38354;52.892;6.148;2023-02-28T07:56:21;42.33;;;17.70;;
52434;SDS011;38354;52.892;6.148;2023-02-28T07:58:48;37.85;;;17.17;;
52434;SDS011;38354;52.892;6.148;2023-02-28T08:01:13;36.95;;;17.55;;
52434;SDS011;38354;52.892;6.148;2023-02-28T08:03:39;34.63;;;17.20;;
52434;SDS011;38354;52.892;6.148;2023-02-28T08:06:06;39.38;;;17.13;;
52434;SDS011;38354;52.892;6.148;2023-02-28T08:08:33;43.55;;;17.63;;
52434;SDS011;38354;52.892;6.148;2023-02-28T08:11:00;39.80;;;17.63;;
52434;SDS011;38354;52.892;6.148;2023-02-28T08:13:27;36.05;;;18.52;;
52434;SDS011;38354;52.892;6.148;2023-02-28T08:15:55;38.08;;;17.73;;
52434;SDS011;38354;52.892;6.148;2023-02-28T08:18:21;35.25;;;18.08;;
52434;SDS011;38354;52.892;6.148;2023-02-28T08:20:47;39.80;;;19.23;;
52434;SDS011;38354;52.892;6.148;2023-02-28T08:23:13;35.50;;;17.25;;
52434;SDS011;38354;52.892;6.148;2023-02-28T08:25:39;33.30;;;16.85;;
52434;SDS011;38354;52.892;6.148;2023-02-28T08:28:05;36.97;;;17.73;;
52434;SDS011;38354;52.892;6.148;2023-02-28T08:30:30;39.78;;;18.70;;
52434;SDS011;38354;52.892;6.148;2023-02-28T08:32:56;35.83;;;17.85;;
52434;SDS011;38354;52.892;6.148;2023-02-28T08:35:22;40.28;;;18.50;;
52434;SDS011;38354;52.892;6.148;2023-02-28T08:37:48;41.65;;;18.58;;
52434;SDS011;38354;52.892;6.148;2023-02-28T08:40:15;33.42;;;17.85;;
52434;SDS011;38354;52.892;6.148;2023-02-28T08:42:44;35.35;;;17.45;;
52434;SDS011;38354;52.892;6.148;2023-02-28T08:45:10;33.88;;;17.27;;
52434;SDS011;38354;52.892;6.148;2023-02-28T08:47:36;38.28;;;16.95;;
52434;SDS011;38354;52.892;6.148;2023-02-28T08:50:02;35.85;;;18.08;;
52434;SDS011;38354;52.892;6.148;2023-02-28T08:52:28;39.67;;;19.25;;
52434;SDS011;38354;52.892;6.148;2023-02-28T08:54:54;35.35;;;17.92;;
52434;SDS011;38354;52.892;6.148;2023-02-28T08:57:19;38.55;;;18.95;;
52434;SDS011;38354;52.892;6.148;2023-02-28T08:59:45;40.55;;;19.90;;
52434;SDS011;38354;52.892;6.148;2023-02-28T09:02:12;33.47;;;17.27;;
52434;SDS011;38354;52.892;6.148;2023-02-28T09:04:39;40.90;;;18.27;;
52434;SDS011;38354;52.892;6.148;2023-02-28T09:07:05;33.95;;;17.75;;
52434;SDS011;38354;52.892;6.148;2023-02-28T09:09:31;35.03;;;17.80;;
52434;SDS011;38354;52.892;6.148;2023-02-28T09:11:56;31.10;;;16.58;;
52434;SDS011;38354;52.892;6.148;2023-02-28T09:14:22;31.58;;;16.83;;
52434;SDS011;38354;52.892;6.148;2023-02-28T09:16:48;31.40;;;17.77;;
52434;SDS011;38354;52.892;6.148;2023-02-28T09:19:14;31.85;;;17.38;;
52434;SDS011;38354;52.892;6.148;2023-02-28T09:21:40;31.30;;;16.70;;
52434;SDS011;38354;52.892;6.148;2023-02-28T09:24:06;32.60;;;16.38;;
52434;SDS011;38354;52.892;6.148;2023-02-28T09:26:32;32.03;;;17.33;;
52434;SDS011;38354;52.892;6.148;2023-02-28T09:28:59;30.23;;;17.08;;
52434;SDS011;38354;52.892;6.148;2023-02-28T09:31:25;24.15;;;13.98;;
52434;SDS011;38354;52.892;6.148;2023-02-28T09:33:54;24.05;;;13.68;;
52434;SDS011;38354;52.892;6.148;2023-02-28T09:36:21;19.15;;;12.60;;
52434;SDS011;38354;52.892;6.148;2023-02-28T09:38:48;26.30;;;14.38;;
52434;SDS011;38354;52.892;6.148;2023-02-28T09:43:48;20.20;;;11.70;;
52434;SDS011;38354;52.892;6.148;2023-02-28T09:48:54;20.08;;;10.95;;
52434;SDS011;38354;52.892;6.148;2023-02-28T09:54:17;16.60;;;10.90;;
52434;SDS011;38354;52.892;6.148;2023-02-28T09:56:55;21.23;;;10.70;;
52434;SDS011;38354;52.892;6.148;2023-02-28T10:02:02;15.95;;;9.38;;
52434;SDS011;38354;52.892;6.148;2023-02-28T10:04:43;14.55;;;8.90;;
52434;SDS011;38354;52.892;6.148;2023-02-28T10:07:18;14.40;;;7.60;;
52434;SDS011;38354;52.892;6.148;2023-02-28T10:09:56;15.25;;;8.23;;
52434;SDS011;38354;52.892;6.148;2023-02-28T10:12:26;11.25;;;6.82;;
52434;SDS011;38354;52.892;6.148;2023-02-28T10:14:54;9.82;;;6.45;;
52434;SDS011;38354;52.892;6.148;2023-02-28T10:17:26;9.30;;;6.40;;
52434;SDS011;38354;52.892;6.148;2023-02-28T10:22:58;7.68;;;4.03;;
52434;SDS011;38354;52.892;6.148;2023-02-28T10:25:25;11.32;;;3.70;;
52434;SDS011;38354;52.892;6.148;2023-02-28T10:27:53;6.68;;;3.60;;
52434;SDS011;38354;52.892;6.148;2023-02-28T10:30:23;8.52;;;3.95;;
52434;SDS011;38354;52.892;6.148;2023-02-28T10:32:51;6.03;;;3.45;;
52434;SDS011;38354;52.892;6.148;2023-02-28T10:35:24;7.57;;;3.58;;
52434;SDS011;38354;52.892;6.148;2023-02-28T10:37:55;6.00;;;3.58;;
52434;SDS011;38354;52.892;6.148;2023-02-28T10:43:02;4.78;;;2.90;;
52434;SDS011;38354;52.892;6.148;2023-02-28T10:45:30;6.68;;;3.33;;
52434;SDS011;38354;52.892;6.148;2023-02-28T10:47:59;5.78;;;3.22;;
52434;SDS011;38354;52.892;6.148;2023-02-28T10:55:55;5.88;;;2.95;;
52434;SDS011;38354;52.892;6.148;2023-02-28T10:58:30;5.18;;;2.60;;
52434;SDS011;38354;52.892;6.148;2023-02-28T11:01:13;5.72;;;2.78;;
52434;SDS011;38354;52.892;6.148;2023-02-28T11:03:41;5.30;;;2.40;;
52434;SDS011;38354;52.892;6.148;2023-02-28T11:06:08;5.45;;;2.70;;
52434;SDS011;38354;52.892;6.148;2023-02-28T11:08:50;5.55;;;2.78;;
52434;SDS011;38354;52.892;6.148;2023-02-28T11:11:18;4.97;;;2.28;;
52434;SDS011;38354;52.892;6.148;2023-02-28T11:13:45;6.80;;;3.50;;
52434;SDS011;38354;52.892;6.148;2023-02-28T11:16:12;6.03;;;3.25;;
52434;SDS011;38354;52.892;6.148;2023-02-28T11:18:41;6.55;;;3.47;;
52434;SDS011;38354;52.892;6.148;2023-02-28T11:21:15;5.55;;;2.92;;
52434;SDS011;38354;52.892;6.148;2023-02-28T11:24:12;4.97;;;2.20;;
52434;SDS011;38354;52.892;6.148;2023-02-28T11:26:43;5.55;;;2.67;;
52434;SDS011;38354;52.892;6.148;2023-02-28T11:29:17;4.75;;;2.83;;
52434;SDS011;38354;52.892;6.148;2023-02-28T11:32:01;4.95;;;2.70;;
52434;SDS011;38354;52.892;6.148;2023-02-28T11:34:28;5.40;;;3.10;;
52434;SDS011;38354;52.892;6.148;2023-02-28T11:36:57;6.85;;;3.13;;
52434;SDS011;38354;52.892;6.148;2023-02-28T11:39:24;6.15;;;3.03;;
52434;SDS011;38354;52.892;6.148;2023-02-28T11:42:04;4.57;;;3.05;;
52434;SDS011;38354;52.892;6.148;2023-02-28T11:44:39;9.65;;;4.00;;
52434;SDS011;38354;52.892;6.148;2023-02-28T11:47:37;6.20;;;3.10;;
52434;SDS011;38354;52.892;6.148;2023-02-28T11:52:53;8.13;;;3.95;;
52434;SDS011;38354;52.892;6.148;2023-02-28T12:06:31;9.00;;;4.13;;
52434;SDS011;38354;52.892;6.148;2023-02-28T12:09:14;11.20;;;4.80;;
52434;SDS011;38354;52.892;6.148;2023-02-28T12:11:58;6.85;;;4.22;;
52434;SDS011;38354;52.892;6.148;2023-02-28T12:20:05;6.03;;;3.88;;
52434;SDS011;38354;52.892;6.148;2023-02-28T12:26:00;9.02;;;4.30;;
52434;SDS011;38354;52.892;6.148;2023-02-28T12:28:30;6.82;;;4.10;;
52434;SDS011;38354;52.892;6.148;2023-02-28T12:31:01;7.95;;;4.40;;
52434;SDS011;38354;52.892;6.148;2023-02-28T12:36:05;7.43;;;4.63;;
52434;SDS011;38354;52.892;6.148;2023-02-28T12:38:43;7.45;;;4.30;;
52434;SDS011;38354;52.892;6.148;2023-02-28T12:41:20;6.80;;;4.10;;
52434;SDS011;38354;52.892;6.148;2023-02-28T12:43:55;8.98;;;4.30;;
52434;SDS011;38354;52.892;6.148;2023-02-28T12:46:29;8.02;;;4.13;;
52434;SDS011;38354;52.892;6.148;2023-02-28T12:49:05;10.40;;;4.90;;
52434;SDS011;38354;52.892;6.148;2023-02-28T12:51:34;6.60;;;4.18;;
52434;SDS011;38354;52.892;6.148;2023-02-28T12:54:10;8.93;;;4.50;;
52434;SDS011;38354;52.892;6.148;2023-02-28T12:57:21;8.30;;;4.60;;
52434;SDS011;38354;52.892;6.148;2023-02-28T13:10:17;7.70;;;4.47;;
52434;SDS011;38354;52.892;6.148;2023-02-28T13:12:47;6.22;;;3.85;;
52434;SDS011;38354;52.892;6.148;2023-02-28T13:17:53;7.82;;;3.95;;
52434;SDS011;38354;52.892;6.148;2023-02-28T13:20:21;6.43;;;4.20;;
52434;SDS011;38354;52.892;6.148;2023-02-28T13:22:51;7.18;;;4.38;;
52434;SDS011;38354;52.892;6.148;2023-02-28T13:27:47;7.47;;;3.95;;
52434;SDS011;38354;52.892;6.148;2023-02-28T13:33:28;6.85;;;4.40;;
52434;SDS011;38354;52.892;6.148;2023-02-28T13:36:10;6.68;;;4.30;;
52434;SDS011;38354;52.892;6.148;2023-02-28T13:38:54;8.57;;;4.10;;
52434;SDS011;38354;52.892;6.148;2023-02-28T13:54:44;8.07;;;4.80;;
52434;SDS011;38354;52.892;6.148;2023-02-28T14:05:32;7.18;;;3.78;;
52434;SDS011;38354;52.892;6.148;2023-02-28T14:08:10;5.72;;;3.72;;
52434;SDS011;38354;52.892;6.148;2023-02-28T14:10:46;7.05;;;4.68;;
52434;SDS011;38354;52.892;6.148;2023-02-28T14:16:05;9.27;;;4.32;;
52434;SDS011;38354;52.892;6.148;2023-02-28T14:18:32;6.50;;;3.85;;
52434;SDS011;38354;52.892;6.148;2023-02-28T14:21:09;7.22;;;3.95;;
52434;SDS011;38354;52.892;6.148;2023-02-28T14:24:07;6.80;;;3.70;;
52434;SDS011;38354;52.892;6.148;2023-02-28T14:37:50;6.50;;;4.20;;
52434;SDS011;38354;52.892;6.148;2023-02-28T14:40:17;9.13;;;4.45;;
52434;SDS011;38354;52.892;6.148;2023-02-28T14:42:54;6.30;;;3.90;;
52434;SDS011;38354;52.892;6.148;2023-02-28T14:45:22;5.97;;;3.88;;
52434;SDS011;38354;52.892;6.148;2023-02-28T14:47:49;6.05;;;3.80;;
52434;SDS011;38354;52.892;6.148;2023-02-28T14:50:32;8.70;;;4.05;;
52434;SDS011;38354;52.892;6.148;2023-02-28T14:53:00;8.77;;;4.18;;
52434;SDS011;38354;52.892;6.148;2023-02-28T14:55:36;9.68;;;4.20;;
52434;SDS011;38354;52.892;6.148;2023-02-28T14:58:06;6.43;;;3.80;;
52434;SDS011;38354;52.892;6.148;2023-02-28T15:00:32;6.28;;;3.92;;
52434;SDS011;38354;52.892;6.148;2023-02-28T15:03:11;6.60;;;3.95;;
52434;SDS011;38354;52.892;6.148;2023-02-28T15:05:57;10.15;;;4.20;;
52434;SDS011;38354;52.892;6.148;2023-02-28T15:08:24;7.80;;;4.10;;
52434;SDS011;38354;52.892;6.148;2023-02-28T15:10:55;8.63;;;4.60;;
52434;SDS011;38354;52.892;6.148;2023-02-28T15:13:26;7.45;;;4.38;;
52434;SDS011;38354;52.892;6.148;2023-02-28T15:16:01;6.95;;;4.07;;
52434;SDS011;38354;52.892;6.148;2023-02-28T15:21:20;7.38;;;4.30;;
52434;SDS011;38354;52.892;6.148;2023-02-28T15:26:33;7.10;;;4.40;;
52434;SDS011;38354;52.892;6.148;2023-02-28T15:29:14;6.18;;;3.95;;
52434;SDS011;38354;52.892;6.148;2023-02-28T15:34:20;7.93;;;4.65;;
52434;SDS011;38354;52.892;6.148;2023-02-28T15:39:52;7.32;;;4.50;;
52434;SDS011;38354;52.892;6.148;2023-02-28T15:42:19;6.95;;;4.53;;
52434;SDS011;38354;52.892;6.148;2023-02-28T15:44:46;9.23;;;4.72;;
52434;SDS011;38354;52.892;6.148;2023-02-28T15:47:19;7.85;;;4.50;;
52434;SDS011;38354;52.892;6.148;2023-02-28T15:50:10;8.82;;;4.40;;
52434;SDS011;38354;52.892;6.148;2023-02-28T15:52:39;9.43;;;5.05;;
52434;SDS011;38354;52.892;6.148;2023-02-28T15:55:28;6.97;;;4.40;;
52434;SDS011;38354;52.892;6.148;2023-02-28T15:57:54;6.78;;;4.32;;
52434;SDS011;38354;52.892;6.148;2023-02-28T16:00:24;6.90;;;3.95;;
52434;SDS011;38354;52.892;6.148;2023-02-28T16:02:51;5.93;;;4.15;;
52434;SDS011;38354;52.892;6.148;2023-02-28T16:05:21;6.28;;;4.30;;
52434;SDS011;38354;52.892;6.148;2023-02-28T16:08:11;7.38;;;4.28;;
52434;SDS011;38354;52.892;6.148;2023-02-28T16:10:40;7.60;;;4.40;;
52434;SDS011;38354;52.892;6.148;2023-02-28T16:13:08;9.07;;;4.53;;
52434;SDS011;38354;52.892;6.148;2023-02-28T16:15:38;7.78;;;4.70;;
52434;SDS011;38354;52.892;6.148;2023-02-28T16:18:07;7.25;;;4.40;;
52434;SDS011;38354;52.892;6.148;2023-02-28T16:20:37;7.65;;;4.90;;
52434;SDS011;38354;52.892;6.148;2023-02-28T16:23:03;9.95;;;4.78;;
52434;SDS011;38354;52.892;6.148;2023-02-28T16:25:33;7.53;;;4.65;;
52434;SDS011;38354;52.892;6.148;2023-02-28T16:27:59;6.85;;;4.88;;
52434;SDS011;38354;52.892;6.148;2023-02-28T16:30:26;8.60;;;5.22;;
52434;SDS011;38354;52.892;6.148;2023-02-28T16:32:54;10.07;;;5.38;;
52434;SDS011;38354;52.892;6.148;2023-02-28T16:35:20;10.63;;;5.82;;
52434;SDS011;38354;52.892;6.148;2023-02-28T16:37:46;11.05;;;5.45;;
52434;SDS011;38354;52.892;6.148;2023-02-28T16:40:17;8.70;;;5.25;;
52434;SDS011;38354;52.892;6.148;2023-02-28T16:42:46;8.25;;;5.10;;
52434;SDS011;38354;52.892;6.148;2023-02-28T16:45:14;8.90;;;5.05;;
52434;SDS011;38354;52.892;6.148;2023-02-28T16:47:44;8.02;;;5.13;;
52434;SDS011;38354;52.892;6.148;2023-02-28T16:50:20;7.90;;;5.13;;
52434;SDS011;38354;52.892;6.148;2023-02-28T16:52:47;9.90;;;5.28;;
52434;SDS011;38354;52.892;6.148;2023-02-28T16:55:14;7.80;;;5.10;;
52434;SDS011;38354;52.892;6.148;2023-02-28T16:57:40;9.48;;;5.35;;
52434;SDS011;38354;52.892;6.148;2023-02-28T17:00:10;9.20;;;5.55;;
52434;SDS011;38354;52.892;6.148;2023-02-28T17:02:38;8.57;;;5.60;;
52434;SDS011;38354;52.892;6.148;2023-02-28T17:05:04;10.52;;;5.18;;
52434;SDS011;38354;52.892;6.148;2023-02-28T17:07:31;8.40;;;5.30;;
52434;SDS011;38354;52.892;6.148;2023-02-28T17:09:57;9.52;;;5.68;;
52434;SDS011;38354;52.892;6.148;2023-02-28T17:12:22;9.75;;;5.95;;
52434;SDS011;38354;52.892;6.148;2023-02-28T17:14:48;8.90;;;5.82;;
52434;SDS011;38354;52.892;6.148;2023-02-28T17:17:17;11.30;;;6.53;;
52434;SDS011;38354;52.892;6.148;2023-02-28T17:19:45;12.07;;;7.03;;
52434;SDS011;38354;52.892;6.148;2023-02-28T17:22:11;10.48;;;5.85;;
52434;SDS011;38354;52.892;6.148;2023-02-28T17:24:37;14.27;;;6.63;;
52434;SDS011;38354;52.892;6.148;2023-02-28T17:27:03;13.63;;;7.43;;
52434;SDS011;38354;52.892;6.148;2023-02-28T17:29:33;13.50;;;7.18;;
52434;SDS011;38354;52.892;6.148;2023-02-28T17:31:58;12.10;;;7.05;;
52434;SDS011;38354;52.892;6.148;2023-02-28T17:34:24;11.45;;;6.38;;
52434;SDS011;38354;52.892;6.148;2023-02-28T17:36:50;9.15;;;6.53;;
52434;SDS011;38354;52.892;6.148;2023-02-28T17:39:17;8.98;;;5.80;;
52434;SDS011;38354;52.892;6.148;2023-02-28T17:41:49;11.07;;;6.40;;
52434;SDS011;38354;52.892;6.148;2023-02-28T17:44:21;11.18;;;7.70;;
52434;SDS011;38354;52.892;6.148;2023-02-28T17:46:48;11.57;;;7.25;;
52434;SDS011;38354;52.892;6.148;2023-02-28T17:49:15;11.45;;;7.15;;
52434;SDS011;38354;52.892;6.148;2023-02-28T17:51:43;13.20;;;8.55;;
52434;SDS011;38354;52.892;6.148;2023-02-28T17:54:09;14.63;;;7.78;;
52434;SDS011;38354;52.892;6.148;2023-02-28T17:56:35;13.98;;;7.65;;
52434;SDS011;38354;52.892;6.148;2023-02-28T17:59:00;11.93;;;7.40;;
52434;SDS011;38354;52.892;6.148;2023-02-28T18:01:26;10.02;;;7.03;;
52434;SDS011;38354;52.892;6.148;2023-02-28T18:03:52;13.98;;;7.80;;
52434;SDS011;38354;52.892;6.148;2023-02-28T18:06:19;13.68;;;7.75;;
52434;SDS011;38354;52.892;6.148;2023-02-28T18:08:49;12.63;;;7.60;;
52434;SDS011;38354;52.892;6.148;2023-02-28T18:11:17;12.60;;;7.60;;
52434;SDS011;38354;52.892;6.148;2023-02-28T18:13:44;17.38;;;9.82;;
52434;SDS011;38354;52.892;6.148;2023-02-28T18:16:11;16.40;;;9.68;;
52434;SDS011;38354;52.892;6.148;2023-02-28T18:18:37;15.25;;;9.82;;
52434;SDS011;38354;52.892;6.148;2023-02-28T18:21:06;15.13;;;9.70;;
52434;SDS011;38354;52.892;6.148;2023-02-28T18:23:33;13.35;;;9.70;;
52434;SDS011;38354;52.892;6.148;2023-02-28T18:25:59;15.63;;;8.85;;
52434;SDS011;38354;52.892;6.148;2023-02-28T18:28:25;15.18;;;8.35;;
52434;SDS011;38354;52.892;6.148;2023-02-28T18:30:51;15.23;;;8.77;;
52434;SDS011;38354;52.892;6.148;2023-02-28T18:33:16;15.45;;;9.13;;
52434;SDS011;38354;52.892;6.148;2023-02-28T18:35:44;17.45;;;9.30;;
52434;SDS011;38354;52.892;6.148;2023-02-28T18:38:10;13.88;;;8.68;;
52434;SDS011;38354;52.892;6.148;2023-02-28T18:40:39;15.63;;;8.48;;
52434;SDS011;38354;52.892;6.148;2023-02-28T18:43:06;14.25;;;8.05;;
52434;SDS011;38354;52.892;6.148;2023-02-28T18:45:36;12.02;;;8.25;;
52434;SDS011;38354;52.892;6.148;2023-02-28T18:48:02;13.90;;;9.05;;
52434;SDS011;38354;52.892;6.148;2023-02-28T18:50:28;15.88;;;9.18;;
52434;SDS011;38354;52.892;6.148;2023-02-28T18:52:54;15.55;;;8.82;;
52434;SDS011;38354;52.892;6.148;2023-02-28T18:55:21;15.25;;;8.70;;
52434;SDS011;38354;52.892;6.148;2023-02-28T18:57:48;18.52;;;9.43;;
52434;SDS011;38354;52.892;6.148;2023-02-28T19:00:14;17.40;;;9.32;;
52434;SDS011;38354;52.892;6.148;2023-02-28T19:02:43;14.48;;;9.10;;
52434;SDS011;38354;52.892;6.148;2023-02-28T19:05:09;15.77;;;9.77;;
52434;SDS011;38354;52.892;6.148;2023-02-28T19:07:36;14.95;;;9.30;;
52434;SDS011;38354;52.892;6.148;2023-02-28T19:10:02;14.65;;;8.90;;
52434;SDS011;38354;52.892;6.148;2023-02-28T19:12:32;15.23;;;9.52;;
52434;SDS011;38354;52.892;6.148;2023-02-28T19:15:02;17.77;;;9.27;;
52434;SDS011;38354;52.892;6.148;2023-02-28T19:17:28;14.10;;;9.20;;
52434;SDS011;38354;52.892;6.148;2023-02-28T19:19:54;15.50;;;9.98;;
52434;SDS011;38354;52.892;6.148;2023-02-28T19:22:19;15.70;;;9.50;;
52434;SDS011;38354;52.892;6.148;2023-02-28T19:24:45;16.25;;;9.88;;
52434;SDS011;38354;52.892;6.148;2023-02-28T19:27:11;16.50;;;10.30;;
52434;SDS011;38354;52.892;6.148;2023-02-28T19:29:36;14.75;;;9.75;;
52434;SDS011;38354;52.892;6.148;2023-02-28T19:32:02;15.88;;;9.18;;
52434;SDS011;38354;52.892;6.148;2023-02-28T19:34:28;19.33;;;10.98;;
52434;SDS011;38354;52.892;6.148;2023-02-28T19:36:54;19.52;;;10.90;;
52434;SDS011;38354;52.892;6.148;2023-02-28T19:39:20;17.17;;;11.10;;
52434;SDS011;38354;52.892;6.148;2023-02-28T19:41:46;21.33;;;10.18;;
52434;SDS011;38354;52.892;6.148;2023-02-28T19:44:12;18.92;;;10.90;;
52434;SDS011;38354;52.892;6.148;2023-02-28T19:46:37;18.65;;;10.43;;
52434;SDS011;38354;52.892;6.148;2023-02-28T19:49:03;16.55;;;9.93;;
52434;SDS011;38354;52.892;6.148;2023-02-28T19:51:29;16.73;;;9.30;;
52434;SDS011;38354;52.892;6.148;2023-02-28T19:53:54;19.73;;;10.95;;
52434;SDS011;38354;52.892;6.148;2023-02-28T19:56:20;15.45;;;9.15;;
52434;SDS011;38354;52.892;6.148;2023-02-28T19:58:46;15.77;;;9.98;;
52434;SDS011;38354;52.892;6.148;2023-02-28T20:01:12;16.65;;;9.82;;
52434;SDS011;38354;52.892;6.148;2023-02-28T20:03:40;15.35;;;10.25;;
52434;SDS011;38354;52.892;6.148;2023-02-28T20:06:08;16.25;;;10.30;;
52434;SDS011;38354;52.892;6.148;2023-02-28T20:08:37;16.80;;;9.52;;
52434;SDS011;38354;52.892;6.148;2023-02-28T20:11:11;16.05;;;10.02;;
52434;SDS011;38354;52.892;6.148;2023-02-28T20:13:39;19.60;;;11.82;;
52434;SDS011;38354;52.892;6.148;2023-02-28T20:16:05;22.25;;;12.60;;
52434;SDS011;38354;52.892;6.148;2023-02-28T20:18:33;21.50;;;12.70;;
52434;SDS011;38354;52.892;6.148;2023-02-28T20:21:00;23.08;;;12.00;;
52434;SDS011;38354;52.892;6.148;2023-02-28T20:23:28;19.58;;;12.35;;
52434;SDS011;38354;52.892;6.148;2023-02-28T20:25:57;20.83;;;12.82;;
52434;SDS011;38354;52.892;6.148;2023-02-28T20:28:23;19.27;;;11.68;;
52434;SDS011;38354;52.892;6.148;2023-02-28T20:30:49;21.30;;;12.20;;
52434;SDS011;38354;52.892;6.148;2023-02-28T20:33:15;20.27;;;11.23;;
52434;SDS011;38354;52.892;6.148;2023-02-28T20:35:42;21.17;;;11.80;;